sensor_id;sensor_type;location;lat;lon;timestamp;pressure;altitude;pressure_sealevel;temperature;humidity
75460;BME280;64039;53.060;9.342;2023-02-15T00:01:38;102649.81;;;1.64;100.00
75460;BME280;64039;53.060;9.342;2023-02-15T00:04:05;102651.47;;;1.53;100.00
75460;BME280;64039;53.060;9.342;2023-02-15T00:06:32;102648.00;;;1.52;100.00
75460;BME280;64039;53.060;9.342;2023-02-15T00:08:58;102644.91;;;1.46;100.00
75460;BME280;64039;53.060;9.342;2023-02-15T00:11:24;102639.66;;;1.55;100.00
75460;BME280;64039;53.060;9.342;2023-02-15T00:14:12;102632.72;;;1.54;100.00
75460;BME280;64039;53.060;9.342;2023-02-15T00:16:40;102638.78;;;1.54;100.00
75460;BME280;64039;53.060;9.342;2023-02-15T00:19:07;102629.63;;;1.48;100.00
75460;BME280;64039;53.060;9.342;2023-02-15T00:21:34;102629.75;;;1.49;100.00
75460;BME280;64039;53.060;9.342;2023-02-15T00:24:01;102628.75;;;1.57;100.00
75460;BME280;64039;53.060;9.342;2023-02-15T00:26:27;102625.69;;;1.51;100.00
75460;BME280;64039;53.060;9.342;2023-02-15T00:28:53;102629.38;;;1.45;100.00
75460;BME280;64039;53.060;9.342;2023-02-15T00:31:19;102627.97;;;1.48;100.00
75460;BME280;64039;53.060;9.342;2023-02-15T00:33:45;102622.09;;;1.60;100.00
75460;BME280;64039;53.060;9.342;2023-02-15T00:36:12;102624.16;;;1.53;100.00
75460;BME280;64039;53.060;9.342;2023-02-15T00:38:39;102629.09;;;1.71;100.00
75460;BME280;64039;53.060;9.342;2023-02-15T00:41:06;102621.81;;;1.56;100.00
75460;BME280;64039;53.060;9.342;2023-02-15T00:43:32;102618.25;;;1.54;100.00
75460;BME280;64039;53.060;9.342;2023-02-15T00:45:59;102618.81;;;1.81;100.00
75460;BME280;64039;53.060;9.342;2023-02-15T00:48:24;102617.63;;;1.57;100.00
75460;BME280;64039;53.060;9.342;2023-02-15T00:50:52;102609.47;;;1.42;100.00
75460;BME280;64039;53.060;9.342;2023-02-15T00:53:18;102611.81;;;1.49;100.00
75460;BME280;64039;53.060;9.342;2023-02-15T00:55:44;102621.72;;;1.55;100.00
75460;BME280;64039;53.060;9.342;2023-02-15T00:58:10;102609.28;;;1.60;100.00
75460;BME280;64039;53.060;9.342;2023-02-15T01:00:37;102614.13;;;1.46;100.00
75460;BME280;64039;53.060;9.342;2023-02-15T01:03:03;102607.25;;;1.36;100.00
75460;BME280;64039;53.060;9.342;2023-02-15T01:05:29;102604.47;;;1.44;100.00
75460;BME280;64039;53.060;9.342;2023-02-15T01:07:55;102604.34;;;1.42;100.00
75460;BME280;64039;53.060;9.342;2023-02-15T01:10:21;102606.03;;;1.52;100.00
75460;BME280;64039;53.060;9.342;2023-02-15T01:12:46;102603.84;;;1.46;100.00
75460;BME280;64039;53.060;9.342;2023-02-15T01:15:12;102604.38;;;1.52;100.00
75460;BME280;64039;53.060;9.342;2023-02-15T01:17:37;102604.03;;;1.68;100.00
75460;BME280;64039;53.060;9.342;2023-02-15T01:20:03;102604.13;;;1.60;100.00
75460;BME280;64039;53.060;9.342;2023-02-15T01:22:29;102598.00;;;1.68;100.00
75460;BME280;64039;53.060;9.342;2023-02-15T01:24:54;102601.44;;;1.58;100.00
75460;BME280;64039;53.060;9.342;2023-02-15T01:27:19;102595.00;;;1.53;100.00
75460;BME280;64039;53.060;9.342;2023-02-15T01:29:45;102597.03;;;1.47;100.00
75460;BME280;64039;53.060;9.342;2023-02-15T01:32:10;102599.72;;;1.38;100.00
75460;BME280;64039;53.060;9.342;2023-02-15T01:34:36;102601.19;;;1.55;100.00
75460;BME280;64039;53.060;9.342;2023-02-15T01:37:01;102594.50;;;1.57;100.00
75460;BME280;64039;53.060;9.342;2023-02-15T01:39:26;102597.72;;;1.54;100.00
75460;BME280;64039;53.060;9.342;2023-02-15T01:41:52;102590.63;;;1.41;100.00
75460;BME280;64039;53.060;9.342;2023-02-15T01:47:11;102578.56;;;1.40;100.00
75460;BME280;64039;53.060;9.342;2023-02-15T01:49:38;102581.16;;;1.51;100.00
75460;BME280;64039;53.060;9.342;2023-02-15T01:52:07;102578.16;;;1.36;100.00
75460;BME280;64039;53.060;9.342;2023-02-15T01:54:35;102581.19;;;1.32;100.00
75460;BME280;64039;53.060;9.342;2023-02-15T01:57:09;102576.00;;;1.40;100.00
75460;BME280;64039;53.060;9.342;2023-02-15T01:59:37;102563.94;;;1.39;100.00
75460;BME280;64039;53.060;9.342;2023-02-15T02:02:05;102555.53;;;1.32;100.00
75460;BME280;64039;53.060;9.342;2023-02-15T02:04:43;102554.31;;;1.37;100.00
75460;BME280;64039;53.060;9.342;2023-02-15T02:07:14;102553.56;;;1.19;100.00
75460;BME280;64039;53.060;9.342;2023-02-15T02:09:42;102551.16;;;1.20;100.00
75460;BME280;64039;53.060;9.342;2023-02-15T02:12:09;102556.06;;;1.28;100.00
75460;BME280;64039;53.060;9.342;2023-02-15T02:14:35;102549.78;;;1.24;100.00
75460;BME280;64039;53.060;9.342;2023-02-15T02:17:42;102542.84;;;1.23;100.00
75460;BME280;64039;53.060;9.342;2023-02-15T02:20:41;102539.75;;;1.17;100.00
75460;BME280;64039;53.060;9.342;2023-02-15T02:23:21;102538.31;;;1.10;100.00
75460;BME280;64039;53.060;9.342;2023-02-15T02:34:01;102525.84;;;1.04;100.00
75460;BME280;64039;53.060;9.342;2023-02-15T02:36:33;102524.25;;;0.96;100.00
75460;BME280;64039;53.060;9.342;2023-02-15T02:44:48;102526.13;;;0.78;100.00
75460;BME280;64039;53.060;9.342;2023-02-15T02:47:32;102520.00;;;0.86;100.00
75460;BME280;64039;53.060;9.342;2023-02-15T02:50:05;102520.75;;;0.85;100.00
75460;BME280;64039;53.060;9.342;2023-02-15T02:52:49;102520.94;;;0.97;100.00
75460;BME280;64039;53.060;9.342;2023-02-15T02:55:31;102515.88;;;0.78;100.00
75460;BME280;64039;53.060;9.342;2023-02-15T03:04:05;102505.75;;;0.80;100.00
75460;BME280;64039;53.060;9.342;2023-02-15T03:06:52;102503.94;;;0.78;100.00
75460;BME280;64039;53.060;9.342;2023-02-15T03:09:25;102494.00;;;0.62;100.00
75460;BME280;64039;53.060;9.342;2023-02-15T03:12:00;102492.22;;;0.61;100.00
75460;BME280;64039;53.060;9.342;2023-02-15T03:14:27;102491.22;;;0.70;100.00
75460;BME280;64039;53.060;9.342;2023-02-15T03:16:53;102495.84;;;0.74;100.00
75460;BME280;64039;53.060;9.342;2023-02-15T03:19:31;102490.47;;;0.71;100.00
75460;BME280;64039;53.060;9.342;2023-02-15T03:22:15;102491.88;;;0.67;100.00
75460;BME280;64039;53.060;9.342;2023-02-15T03:25:05;102487.09;;;0.61;100.00
75460;BME280;64039;53.060;9.342;2023-02-15T03:27:38;102485.81;;;0.67;100.00
75460;BME280;64039;53.060;9.342;2023-02-15T03:30:06;102475.25;;;0.83;100.00
75460;BME280;64039;53.060;9.342;2023-02-15T03:32:34;102470.31;;;0.94;100.00
75460;BME280;64039;53.060;9.342;2023-02-15T03:35:02;102475.69;;;0.68;100.00
75460;BME280;64039;53.060;9.342;2023-02-15T03:37:44;102476.03;;;0.52;100.00
75460;BME280;64039;53.060;9.342;2023-02-15T03:40:57;102477.94;;;0.55;100.00
75460;BME280;64039;53.060;9.342;2023-02-15T03:44:33;102479.34;;;0.51;100.00
75460;BME280;64039;53.060;9.342;2023-02-15T03:46:46;102475.19;;;0.43;100.00
75460;BME280;64039;53.060;9.342;2023-02-15T03:49:36;102473.91;;;0.38;100.00
75460;BME280;64039;53.060;9.342;2023-02-15T03:52:06;102475.41;;;0.36;100.00
75460;BME280;64039;53.060;9.342;2023-02-15T03:54:34;102473.31;;;0.31;100.00
75460;BME280;64039;53.060;9.342;2023-02-15T03:57:17;102485.78;;;0.37;100.00
75460;BME280;64039;53.060;9.342;2023-02-15T04:00:09;102487.31;;;0.35;100.00
75460;BME280;64039;53.060;9.342;2023-02-15T04:05:43;102492.69;;;0.57;100.00
75460;BME280;64039;53.060;9.342;2023-02-15T04:08:10;102500.47;;;0.49;100.00
75460;BME280;64039;53.060;9.342;2023-02-15T04:10:35;102496.66;;;0.35;100.00
75460;BME280;64039;53.060;9.342;2023-02-15T04:13:33;102488.97;;;0.35;100.00
75460;BME280;64039;53.060;9.342;2023-02-15T04:15:59;102497.56;;;0.16;100.00
75460;BME280;64039;53.060;9.342;2023-02-15T04:18:33;102487.66;;;0.10;100.00
75460;BME280;64039;53.060;9.342;2023-02-15T04:21:18;102476.41;;;0.27;100.00
75460;BME280;64039;53.060;9.342;2023-02-15T04:24:02;102473.53;;;0.24;100.00
75460;BME280;64039;53.060;9.342;2023-02-15T04:26:47;102471.91;;;0.25;100.00
75460;BME280;64039;53.060;9.342;2023-02-15T04:29:19;102464.69;;;0.21;100.00
75460;BME280;64039;53.060;9.342;2023-02-15T04:31:45;102465.78;;;0.14;100.00
75460;BME280;64039;53.060;9.342;2023-02-15T04:34:11;102466.38;;;0.20;100.00
75460;BME280;64039;53.060;9.342;2023-02-15T04:36:40;102462.69;;;0.08;100.00
75460;BME280;64039;53.060;9.342;2023-02-15T04:39:06;102454.16;;;-0.02;100.00
75460;BME280;64039;53.060;9.342;2023-02-15T04:41:33;102453.41;;;-0.01;100.00
75460;BME280;64039;53.060;9.342;2023-02-15T04:43:58;102448.72;;;0.04;100.00
75460;BME280;64039;53.060;9.342;2023-02-15T04:46:24;102448.59;;;0.03;100.00
75460;BME280;64039;53.060;9.342;2023-02-15T04:48:50;102448.38;;;0.10;100.00
75460;BME280;64039;53.060;9.342;2023-02-15T04:51:15;102447.41;;;0.18;100.00
75460;BME280;64039;53.060;9.342;2023-02-15T04:53:41;102444.41;;;0.13;100.00
75460;BME280;64039;53.060;9.342;2023-02-15T04:56:06;102462.91;;;0.01;100.00
75460;BME280;64039;53.060;9.342;2023-02-15T04:58:32;102449.03;;;-0.02;100.00
75460;BME280;64039;53.060;9.342;2023-02-15T05:00:58;102450.84;;;-0.01;100.00
75460;BME280;64039;53.060;9.342;2023-02-15T05:03:24;102445.44;;;-0.04;100.00
75460;BME280;64039;53.060;9.342;2023-02-15T05:05:50;102445.31;;;-0.05;100.00
75460;BME280;64039;53.060;9.342;2023-02-15T05:08:16;102437.16;;;-0.01;100.00
75460;BME280;64039;53.060;9.342;2023-02-15T05:10:41;102446.41;;;-0.12;100.00
75460;BME280;64039;53.060;9.342;2023-02-15T05:13:07;102443.03;;;-0.21;100.00
75460;BME280;64039;53.060;9.342;2023-02-15T05:15:32;102453.75;;;-0.25;100.00
75460;BME280;64039;53.060;9.342;2023-02-15T05:17:58;102451.69;;;-0.29;100.00
75460;BME280;64039;53.060;9.342;2023-02-15T05:20:23;102444.59;;;-0.32;100.00
75460;BME280;64039;53.060;9.342;2023-02-15T05:22:53;102440.84;;;-0.36;100.00
75460;BME280;64039;53.060;9.342;2023-02-15T05:25:18;102437.34;;;-0.27;100.00
75460;BME280;64039;53.060;9.342;2023-02-15T05:28:02;102432.97;;;-0.28;100.00
75460;BME280;64039;53.060;9.342;2023-02-15T05:31:01;102422.34;;;-0.14;100.00
75460;BME280;64039;53.060;9.342;2023-02-15T05:33:27;102426.84;;;-0.30;100.00
75460;BME280;64039;53.060;9.342;2023-02-15T05:35:53;102415.97;;;-0.47;100.00
75460;BME280;64039;53.060;9.342;2023-02-15T05:38:18;102413.47;;;-0.37;100.00
75460;BME280;64039;53.060;9.342;2023-02-15T05:40:44;102417.41;;;-0.40;100.00
75460;BME280;64039;53.060;9.342;2023-02-15T05:43:09;102411.19;;;-0.53;100.00
75460;BME280;64039;53.060;9.342;2023-02-15T05:45:35;102402.25;;;-0.67;100.00
75460;BME280;64039;53.060;9.342;2023-02-15T05:48:00;102404.78;;;-0.67;100.00
75460;BME280;64039;53.060;9.342;2023-02-15T05:50:26;102401.28;;;-0.58;100.00
75460;BME280;64039;53.060;9.342;2023-02-15T05:52:52;102400.31;;;-0.69;100.00
75460;BME280;64039;53.060;9.342;2023-02-15T05:55:17;102397.13;;;-0.67;100.00
75460;BME280;64039;53.060;9.342;2023-02-15T05:57:43;102394.78;;;-0.83;100.00
75460;BME280;64039;53.060;9.342;2023-02-15T06:00:09;102393.16;;;-0.82;100.00
75460;BME280;64039;53.060;9.342;2023-02-15T06:02:36;102397.25;;;-0.65;100.00
75460;BME280;64039;53.060;9.342;2023-02-15T06:05:03;102398.84;;;-0.76;100.00
75460;BME280;64039;53.060;9.342;2023-02-15T06:07:28;102401.38;;;-0.76;100.00
75460;BME280;64039;53.060;9.342;2023-02-15T06:09:54;102408.44;;;-0.45;100.00
75460;BME280;64039;53.060;9.342;2023-02-15T06:12:19;102400.00;;;-0.44;100.00
75460;BME280;64039;53.060;9.342;2023-02-15T06:14:45;102407.38;;;-0.48;100.00
75460;BME280;64039;53.060;9.342;2023-02-15T06:17:11;102407.28;;;-0.58;100.00
75460;BME280;64039;53.060;9.342;2023-02-15T06:19:36;102407.00;;;-0.89;100.00
75460;BME280;64039;53.060;9.342;2023-02-15T06:22:02;102402.66;;;-0.62;100.00
75460;BME280;64039;53.060;9.342;2023-02-15T06:24:27;102404.66;;;-0.68;100.00
75460;BME280;64039;53.060;9.342;2023-02-15T06:26:53;102403.84;;;-0.58;100.00
75460;BME280;64039;53.060;9.342;2023-02-15T06:29:19;102411.72;;;-0.66;100.00
75460;BME280;64039;53.060;9.342;2023-02-15T06:31:45;102417.16;;;-0.71;100.00
75460;BME280;64039;53.060;9.342;2023-02-15T06:34:11;102408.13;;;-0.49;100.00
75460;BME280;64039;53.060;9.342;2023-02-15T06:36:37;102406.97;;;-0.52;100.00
75460;BME280;64039;53.060;9.342;2023-02-15T06:39:03;102408.88;;;-0.50;100.00
75460;BME280;64039;53.060;9.342;2023-02-15T06:41:29;102414.72;;;-0.42;100.00
75460;BME280;64039;53.060;9.342;2023-02-15T06:43:55;102417.81;;;-0.55;100.00
75460;BME280;64039;53.060;9.342;2023-02-15T06:46:21;102413.34;;;-0.66;100.00
75460;BME280;64039;53.060;9.342;2023-02-15T06:48:47;102412.56;;;-0.84;100.00
75460;BME280;64039;53.060;9.342;2023-02-15T06:51:12;102404.44;;;-0.80;100.00
75460;BME280;64039;53.060;9.342;2023-02-15T06:53:38;102406.63;;;-0.74;100.00
75460;BME280;64039;53.060;9.342;2023-02-15T06:56:07;102413.94;;;-0.88;100.00
75460;BME280;64039;53.060;9.342;2023-02-15T06:58:36;102407.34;;;-0.67;100.00
75460;BME280;64039;53.060;9.342;2023-02-15T07:01:04;102405.31;;;-0.80;100.00
75460;BME280;64039;53.060;9.342;2023-02-15T07:03:30;102396.59;;;-0.82;100.00
75460;BME280;64039;53.060;9.342;2023-02-15T07:05:58;102400.97;;;-0.81;100.00
75460;BME280;64039;53.060;9.342;2023-02-15T07:08:24;102404.88;;;-0.84;100.00
75460;BME280;64039;53.060;9.342;2023-02-15T07:10:51;102396.03;;;-0.88;100.00
75460;BME280;64039;53.060;9.342;2023-02-15T07:13:17;102402.38;;;-0.93;100.00
75460;BME280;64039;53.060;9.342;2023-02-15T07:15:44;102400.66;;;-0.84;100.00
75460;BME280;64039;53.060;9.342;2023-02-15T07:18:09;102384.88;;;-0.80;100.00
75460;BME280;64039;53.060;9.342;2023-02-15T07:20:36;102389.91;;;-0.71;100.00
75460;BME280;64039;53.060;9.342;2023-02-15T07:23:02;102392.97;;;-0.75;100.00
75460;BME280;64039;53.060;9.342;2023-02-15T07:25:28;102387.66;;;-0.68;100.00
75460;BME280;64039;53.060;9.342;2023-02-15T07:28:01;102393.25;;;-0.72;100.00
75460;BME280;64039;53.060;9.342;2023-02-15T07:30:28;102393.13;;;-0.54;100.00
75460;BME280;64039;53.060;9.342;2023-02-15T07:32:57;102388.28;;;-0.51;100.00
75460;BME280;64039;53.060;9.342;2023-02-15T07:35:51;102377.44;;;-0.49;100.00
75460;BME280;64039;53.060;9.342;2023-02-15T07:38:18;102384.28;;;-0.58;100.00
75460;BME280;64039;53.060;9.342;2023-02-15T07:40:44;102362.03;;;-0.40;100.00
75460;BME280;64039;53.060;9.342;2023-02-15T07:43:11;102367.84;;;-0.32;100.00
75460;BME280;64039;53.060;9.342;2023-02-15T07:45:37;102363.25;;;-0.45;100.00
75460;BME280;64039;53.060;9.342;2023-02-15T07:48:03;102360.28;;;-0.50;100.00
75460;BME280;64039;53.060;9.342;2023-02-15T07:50:29;102360.59;;;-0.46;100.00
75460;BME280;64039;53.060;9.342;2023-02-15T07:52:55;102362.88;;;-0.30;100.00
75460;BME280;64039;53.060;9.342;2023-02-15T07:55:20;102358.19;;;-0.26;100.00
75460;BME280;64039;53.060;9.342;2023-02-15T07:57:48;102346.56;;;-0.22;100.00
75460;BME280;64039;53.060;9.342;2023-02-15T08:00:16;102348.91;;;-0.15;100.00
75460;BME280;64039;53.060;9.342;2023-02-15T08:02:47;102349.53;;;-0.18;100.00
75460;BME280;64039;53.060;9.342;2023-02-15T08:05:14;102338.03;;;-0.12;100.00
75460;BME280;64039;53.060;9.342;2023-02-15T08:07:39;102343.75;;;0.04;100.00
75460;BME280;64039;53.060;9.342;2023-02-15T08:10:05;102346.00;;;0.20;100.00
75460;BME280;64039;53.060;9.342;2023-02-15T08:12:30;102347.41;;;0.17;100.00
75460;BME280;64039;53.060;9.342;2023-02-15T08:14:56;102349.16;;;0.37;100.00
75460;BME280;64039;53.060;9.342;2023-02-15T08:17:21;102342.03;;;0.24;100.00
75460;BME280;64039;53.060;9.342;2023-02-15T08:19:47;102336.88;;;0.13;100.00
75460;BME280;64039;53.060;9.342;2023-02-15T08:22:14;102336.66;;;0.21;100.00
75460;BME280;64039;53.060;9.342;2023-02-15T08:24:40;102343.97;;;0.26;100.00
75460;BME280;64039;53.060;9.342;2023-02-15T08:27:08;102347.59;;;0.39;100.00
75460;BME280;64039;53.060;9.342;2023-02-15T08:29:35;102347.63;;;0.49;100.00
75460;BME280;64039;53.060;9.342;2023-02-15T08:32:04;102351.00;;;0.58;100.00
75460;BME280;64039;53.060;9.342;2023-02-15T08:34:32;102350.16;;;0.39;100.00
75460;BME280;64039;53.060;9.342;2023-02-15T08:36:58;102347.38;;;0.46;100.00
75460;BME280;64039;53.060;9.342;2023-02-15T08:39:23;102337.94;;;0.66;100.00
75460;BME280;64039;53.060;9.342;2023-02-15T08:41:49;102333.81;;;0.57;100.00
75460;BME280;64039;53.060;9.342;2023-02-15T08:44:17;102340.75;;;0.58;100.00
75460;BME280;64039;53.060;9.342;2023-02-15T08:46:44;102334.34;;;0.63;100.00
75460;BME280;64039;53.060;9.342;2023-02-15T08:49:12;102336.28;;;0.66;100.00
75460;BME280;64039;53.060;9.342;2023-02-15T08:51:39;102334.00;;;0.80;100.00
75460;BME280;64039;53.060;9.342;2023-02-15T08:54:07;102332.97;;;0.88;100.00
75460;BME280;64039;53.060;9.342;2023-02-15T08:56:36;102330.84;;;1.13;100.00
75460;BME280;64039;53.060;9.342;2023-02-15T08:59:02;102333.25;;;1.12;100.00
75460;BME280;64039;53.060;9.342;2023-02-15T09:01:30;102326.22;;;1.09;100.00
75460;BME280;64039;53.060;9.342;2023-02-15T09:03:58;102327.22;;;1.32;100.00
75460;BME280;64039;53.060;9.342;2023-02-15T09:06:23;102318.22;;;1.47;100.00
75460;BME280;64039;53.060;9.342;2023-02-15T09:08:50;102319.03;;;1.46;100.00
75460;BME280;64039;53.060;9.342;2023-02-15T09:11:21;102317.72;;;1.41;100.00
75460;BME280;64039;53.060;9.342;2023-02-15T09:13:49;102317.47;;;1.48;100.00
75460;BME280;64039;53.060;9.342;2023-02-15T09:16:16;102316.94;;;1.63;100.00
75460;BME280;64039;53.060;9.342;2023-02-15T09:18:42;102309.53;;;1.88;100.00
75460;BME280;64039;53.060;9.342;2023-02-15T09:21:20;102315.03;;;2.03;100.00
75460;BME280;64039;53.060;9.342;2023-02-15T09:23:48;102317.66;;;2.15;100.00
75460;BME280;64039;53.060;9.342;2023-02-15T09:26:19;102319.25;;;2.35;100.00
75460;BME280;64039;53.060;9.342;2023-02-15T09:28:45;102311.34;;;2.44;100.00
75460;BME280;64039;53.060;9.342;2023-02-15T09:31:13;102313.44;;;2.60;100.00
75460;BME280;64039;53.060;9.342;2023-02-15T09:33:41;102318.34;;;2.57;100.00
75460;BME280;64039;53.060;9.342;2023-02-15T09:36:31;102322.19;;;2.62;100.00
75460;BME280;64039;53.060;9.342;2023-02-15T09:39:12;102320.66;;;2.64;100.00
75460;BME280;64039;53.060;9.342;2023-02-15T09:47:41;102318.63;;;2.94;100.00
75460;BME280;64039;53.060;9.342;2023-02-15T09:53:34;102309.59;;;3.11;100.00
75460;BME280;64039;53.060;9.342;2023-02-15T09:56:30;102309.75;;;3.12;100.00
75460;BME280;64039;53.060;9.342;2023-02-15T10:01:52;102311.16;;;3.43;100.00
75460;BME280;64039;53.060;9.342;2023-02-15T10:23:07;102303.28;;;4.13;100.00
75460;BME280;64039;53.060;9.342;2023-02-15T10:25:51;102302.63;;;4.03;100.00
75460;BME280;64039;53.060;9.342;2023-02-15T10:28:38;102302.63;;;4.03;100.00
75460;BME280;64039;53.060;9.342;2023-02-15T10:33:42;102288.13;;;4.29;100.00
75460;BME280;64039;53.060;9.342;2023-02-15T10:39:26;102294.31;;;4.56;100.00
75460;BME280;64039;53.060;9.342;2023-02-15T10:42:02;102293.47;;;4.69;100.00
75460;BME280;64039;53.060;9.342;2023-02-15T10:47:37;102293.56;;;4.71;100.00
75460;BME280;64039;53.060;9.342;2023-02-15T10:50:22;102285.44;;;4.90;100.00
75460;BME280;64039;53.060;9.342;2023-02-15T11:01:11;102278.03;;;5.08;100.00
75460;BME280;64039;53.060;9.342;2023-02-15T11:06:33;102270.34;;;5.35;100.00
75460;BME280;64039;53.060;9.342;2023-02-15T11:09:03;102275.50;;;5.48;100.00
75460;BME280;64039;53.060;9.342;2023-02-15T11:11:37;102272.81;;;5.60;100.00
75460;BME280;64039;53.060;9.342;2023-02-15T11:14:15;102270.84;;;5.70;100.00
75460;BME280;64039;53.060;9.342;2023-02-15T11:16:44;102273.94;;;5.77;100.00
75460;BME280;64039;53.060;9.342;2023-02-15T11:21:46;102278.69;;;5.71;100.00
75460;BME280;64039;53.060;9.342;2023-02-15T11:24:17;102270.44;;;5.77;100.00
75460;BME280;64039;53.060;9.342;2023-02-15T11:26:47;102270.31;;;5.89;100.00
75460;BME280;64039;53.060;9.342;2023-02-15T11:29:30;102267.28;;;6.08;100.00
75460;BME280;64039;53.060;9.342;2023-02-15T11:32:33;102257.22;;;6.12;100.00
75460;BME280;64039;53.060;9.342;2023-02-15T11:40:34;102244.91;;;6.37;100.00
75460;BME280;64039;53.060;9.342;2023-02-15T11:43:05;102245.31;;;6.29;100.00
75460;BME280;64039;53.060;9.342;2023-02-15T11:45:34;102240.00;;;6.41;100.00
75460;BME280;64039;53.060;9.342;2023-02-15T11:48:00;102224.97;;;6.49;100.00
75460;BME280;64039;53.060;9.342;2023-02-15T11:50:32;102243.09;;;6.64;100.00
75460;BME280;64039;53.060;9.342;2023-02-15T11:53:13;102234.22;;;6.74;100.00
75460;BME280;64039;53.060;9.342;2023-02-15T11:55:43;102221.44;;;6.77;100.00
75460;BME280;64039;53.060;9.342;2023-02-15T11:58:21;102220.91;;;6.83;100.00
75460;BME280;64039;53.060;9.342;2023-02-15T12:00:52;102229.13;;;6.90;100.00
75460;BME280;64039;53.060;9.342;2023-02-15T12:03:26;102219.22;;;6.83;100.00
75460;BME280;64039;53.060;9.342;2023-02-15T12:05:57;102217.00;;;6.89;100.00
75460;BME280;64039;53.060;9.342;2023-02-15T12:08:51;102211.38;;;6.97;100.00
75460;BME280;64039;53.060;9.342;2023-02-15T12:11:34;102203.00;;;7.01;100.00
75460;BME280;64039;53.060;9.342;2023-02-15T12:14:07;102204.47;;;7.12;100.00
75460;BME280;64039;53.060;9.342;2023-02-15T12:16:42;102198.25;;;7.08;100.00
75460;BME280;64039;53.060;9.342;2023-02-15T12:19:29;102199.84;;;7.21;100.00
75460;BME280;64039;53.060;9.342;2023-02-15T12:21:57;102193.41;;;7.30;100.00
75460;BME280;64039;53.060;9.342;2023-02-15T12:24:29;102193.13;;;7.25;100.00
75460;BME280;64039;53.060;9.342;2023-02-15T12:27:13;102185.28;;;7.38;100.00
75460;BME280;64039;53.060;9.342;2023-02-15T12:29:43;102183.91;;;7.45;100.00
75460;BME280;64039;53.060;9.342;2023-02-15T12:32:47;102182.00;;;7.58;100.00
75460;BME280;64039;53.060;9.342;2023-02-15T12:35:27;102177.84;;;7.45;100.00
75460;BME280;64039;53.060;9.342;2023-02-15T12:37:55;102172.72;;;7.46;100.00
75460;BME280;64039;53.060;9.342;2023-02-15T12:40:27;102167.38;;;7.43;100.00
75460;BME280;64039;53.060;9.342;2023-02-15T12:42:53;102168.69;;;7.51;100.00
75460;BME280;64039;53.060;9.342;2023-02-15T12:47:47;102162.00;;;7.55;100.00
75460;BME280;64039;53.060;9.342;2023-02-15T12:50:32;102157.22;;;7.63;100.00
75460;BME280;64039;53.060;9.342;2023-02-15T12:55:38;102156.91;;;7.73;100.00
75460;BME280;64039;53.060;9.342;2023-02-15T12:58:11;102144.84;;;7.74;100.00
75460;BME280;64039;53.060;9.342;2023-02-15T13:00:41;102137.56;;;7.83;100.00
75460;BME280;64039;53.060;9.342;2023-02-15T13:03:16;102144.47;;;7.82;100.00
75460;BME280;64039;53.060;9.342;2023-02-15T13:05:50;102149.16;;;7.90;100.00
75460;BME280;64039;53.060;9.342;2023-02-15T13:08:20;102140.34;;;7.86;100.00
75460;BME280;64039;53.060;9.342;2023-02-15T13:11:06;102143.31;;;7.77;100.00
75460;BME280;64039;53.060;9.342;2023-02-15T13:13:38;102135.53;;;7.77;100.00
75460;BME280;64039;53.060;9.342;2023-02-15T13:16:13;102132.63;;;7.71;100.00
75460;BME280;64039;53.060;9.342;2023-02-15T13:18:44;102140.16;;;7.83;100.00
75460;BME280;64039;53.060;9.342;2023-02-15T13:21:13;102140.88;;;7.80;100.00
75460;BME280;64039;53.060;9.342;2023-02-15T13:24:24;102146.81;;;7.78;100.00
75460;BME280;64039;53.060;9.342;2023-02-15T13:26:52;102140.66;;;7.92;100.00
75460;BME280;64039;53.060;9.342;2023-02-15T13:29:37;102144.72;;;7.87;100.00
75460;BME280;64039;53.060;9.342;2023-02-15T13:32:22;102133.69;;;7.91;100.00
75460;BME280;64039;53.060;9.342;2023-02-15T13:34:54;102121.75;;;8.11;100.00
75460;BME280;64039;53.060;9.342;2023-02-15T13:37:31;102114.78;;;8.10;100.00
75460;BME280;64039;53.060;9.342;2023-02-15T13:40:10;102111.00;;;8.20;100.00
75460;BME280;64039;53.060;9.342;2023-02-15T13:42:40;102113.09;;;8.11;100.00
75460;BME280;64039;53.060;9.342;2023-02-15T13:45:30;102106.88;;;8.07;100.00
75460;BME280;64039;53.060;9.342;2023-02-15T13:48:33;102100.72;;;8.05;100.00
75460;BME280;64039;53.060;9.342;2023-02-15T13:53:39;102112.56;;;8.00;100.00
75460;BME280;64039;53.060;9.342;2023-02-15T13:56:18;102103.47;;;8.08;99.91
75460;BME280;64039;53.060;9.342;2023-02-15T14:12:31;102095.22;;;7.99;100.00
75460;BME280;64039;53.060;9.342;2023-02-15T14:15:18;102089.84;;;7.96;100.00
75460;BME280;64039;53.060;9.342;2023-02-15T14:18:04;102095.44;;;8.03;100.00
75460;BME280;64039;53.060;9.342;2023-02-15T14:23:37;102081.09;;;7.94;100.00
75460;BME280;64039;53.060;9.342;2023-02-15T14:26:11;102082.56;;;8.05;100.00
75460;BME280;64039;53.060;9.342;2023-02-15T14:28:50;102079.09;;;8.05;100.00
75460;BME280;64039;53.060;9.342;2023-02-15T14:31:19;102076.56;;;8.06;100.00
75460;BME280;64039;53.060;9.342;2023-02-15T14:33:53;102083.28;;;8.19;100.00
75460;BME280;64039;53.060;9.342;2023-02-15T14:36:20;102092.09;;;8.23;100.00
75460;BME280;64039;53.060;9.342;2023-02-15T14:41:39;102089.34;;;8.03;100.00
75460;BME280;64039;53.060;9.342;2023-02-15T14:44:23;102082.88;;;8.11;100.00
75460;BME280;64039;53.060;9.342;2023-02-15T14:46:54;102084.16;;;8.03;100.00
75460;BME280;64039;53.060;9.342;2023-02-15T14:49:25;102079.59;;;7.97;100.00
75460;BME280;64039;53.060;9.342;2023-02-15T14:56:46;102082.38;;;8.02;100.00
75460;BME280;64039;53.060;9.342;2023-02-15T15:02:24;102079.00;;;7.86;100.00
75460;BME280;64039;53.060;9.342;2023-02-15T15:05:09;102085.41;;;7.77;100.00
75460;BME280;64039;53.060;9.342;2023-02-15T15:07:40;102083.22;;;7.68;100.00
75460;BME280;64039;53.060;9.342;2023-02-15T15:15:54;102078.44;;;7.59;100.00